createdAt,value
2019-02-26T00:01:04.662Z,15.80
2019-02-26T00:03:35.407Z,14.93
2019-02-26T00:06:04.947Z,15.37
2019-02-26T00:08:34.255Z,15.20
2019-02-26T00:11:05.975Z,15.67
2019-02-26T00:13:36.581Z,15.50
2019-02-26T00:16:07.673Z,16.17
2019-02-26T00:18:37.108Z,15.97
2019-02-26T00:21:06.499Z,15.53
2019-02-26T00:23:35.915Z,17.00
2019-02-26T00:26:05.306Z,16.63
2019-02-26T00:28:36.597Z,15.10
2019-02-26T00:31:06.046Z,15.87
2019-02-26T00:33:35.637Z,16.13
2019-02-26T00:36:06.779Z,15.80
2019-02-26T00:38:37.637Z,17.50
2019-02-26T00:41:07.096Z,16.27
2019-02-26T00:43:36.904Z,15.87
2019-02-26T00:46:08.607Z,15.77
2019-02-26T00:48:40.245Z,14.63
2019-02-26T00:51:08.523Z,15.87
2019-02-26T00:53:38.097Z,14.60
2019-02-26T00:56:08.005Z,15.30
2019-02-26T00:58:39.311Z,16.33
2019-02-26T01:01:12.151Z,15.03
2019-02-26T01:03:43.073Z,14.10
2019-02-26T01:06:11.964Z,15.73
2019-02-26T01:08:43.070Z,15.97
2019-02-26T01:11:12.410Z,15.37
2019-02-26T01:13:41.794Z,14.87
2019-02-26T01:16:11.212Z,15.77
2019-02-26T01:18:42.082Z,15.63
2019-02-26T01:21:11.620Z,15.67
2019-02-26T01:23:41.024Z,14.87
2019-02-26T01:26:12.217Z,14.73
2019-02-26T01:28:44.152Z,14.40
2019-02-26T01:31:12.491Z,13.90
2019-02-26T01:33:41.903Z,15.63
2019-02-26T01:36:11.281Z,16.07
2019-02-26T01:38:41.654Z,15.50
2019-02-26T01:41:13.873Z,16.43
2019-02-26T01:43:42.751Z,16.03
2019-02-26T01:46:14.005Z,15.67
2019-02-26T01:48:43.159Z,14.53
2019-02-26T01:51:12.624Z,16.00
2019-02-26T01:53:44.084Z,15.53
2019-02-26T01:56:13.099Z,14.47
2019-02-26T01:58:42.492Z,13.67
2019-02-26T02:01:14.001Z,15.53
2019-02-26T02:03:44.709Z,13.47
2019-02-26T02:06:15.899Z,14.20
2019-02-26T02:08:45.939Z,14.93
2019-02-26T02:11:16.028Z,13.47
2019-02-26T02:13:45.436Z,13.50
2019-02-26T02:16:14.890Z,13.20
2019-02-26T02:18:48.160Z,14.53
2019-02-26T02:21:15.464Z,12.87
2019-02-26T02:23:46.438Z,12.97
2019-02-26T02:26:15.899Z,12.53
2019-02-26T02:28:45.269Z,12.47
2019-02-26T02:31:14.686Z,13.27
2019-02-26T02:33:44.071Z,12.03
2019-02-26T02:36:15.044Z,13.27
2019-02-26T02:38:44.793Z,12.73
2019-02-26T02:41:14.159Z,12.93
2019-02-26T02:43:43.911Z,12.70
2019-02-26T02:46:13.297Z,13.23
2019-02-26T02:48:42.728Z,13.30
2019-02-26T02:51:13.854Z,13.47
2019-02-26T02:53:45.268Z,13.47
2019-02-26T02:56:15.354Z,12.70
2019-02-26T02:58:46.927Z,12.43
2019-02-26T03:01:17.535Z,13.73
2019-02-26T03:03:48.242Z,13.10
2019-02-26T03:06:18.751Z,13.37
2019-02-26T03:08:50.897Z,13.53
2019-02-26T03:11:19.222Z,13.43
2019-02-26T03:13:51.198Z,13.43
2019-02-26T03:16:21.526Z,13.83
2019-02-26T03:18:51.027Z,13.73
2019-02-26T03:21:22.007Z,14.10
2019-02-26T03:23:51.465Z,12.97
2019-02-26T03:26:22.828Z,13.27
2019-02-26T03:28:53.319Z,13.00
2019-02-26T03:31:28.654Z,14.07
2019-02-26T03:34:00.221Z,13.33
2019-02-26T03:36:24.813Z,14.77
2019-02-26T03:38:56.609Z,13.20
2019-02-26T03:41:26.391Z,12.50
2019-02-26T03:43:58.443Z,13.47
2019-02-26T03:46:27.360Z,13.03
2019-02-26T03:48:57.098Z,13.53
2019-02-26T03:51:26.723Z,12.73
2019-02-26T03:53:56.203Z,13.80
2019-02-26T03:56:25.591Z,13.80
2019-02-26T03:58:57.815Z,13.23
2019-02-26T04:01:26.178Z,13.60
2019-02-26T04:03:57.213Z,13.80
2019-02-26T04:06:26.603Z,14.47
2019-02-26T04:08:56.395Z,14.20
2019-02-26T04:11:27.761Z,13.97
2019-02-26T04:13:56.853Z,13.40
2019-02-26T04:16:26.275Z,12.83
2019-02-26T04:18:55.667Z,13.63
2019-02-26T04:21:26.730Z,12.63
2019-02-26T04:23:58.568Z,12.83
2019-02-26T04:26:55.537Z,12.67
2019-02-26T04:29:46.724Z,14.43
2019-02-26T04:32:54.363Z,12.67
2019-02-26T04:36:00.816Z,13.00
2019-02-26T04:39:02.120Z,14.43
2019-02-26T04:41:56.252Z,13.13
2019-02-26T04:45:07.937Z,13.23
2019-02-26T04:47:34.900Z,13.37
2019-02-26T04:50:06.223Z,14.03
2019-02-26T04:52:37.789Z,13.63
2019-02-26T04:55:06.661Z,13.90
2019-02-26T04:57:39.409Z,13.50
2019-02-26T05:00:10.409Z,13.80
2019-02-26T05:02:38.489Z,15.23
2019-02-26T05:05:07.876Z,13.30
2019-02-26T05:07:38.525Z,14.17
2019-02-26T05:10:08.438Z,13.17
2019-02-26T05:12:40.200Z,14.10
2019-02-26T05:15:11.536Z,13.97
2019-02-26T05:17:40.023Z,13.10
2019-02-26T05:20:12.964Z,13.70
2019-02-26T05:22:40.724Z,14.20
2019-02-26T05:25:14.034Z,14.03
2019-02-26T05:27:42.910Z,14.43
2019-02-26T05:30:13.943Z,13.33
2019-02-26T05:32:43.399Z,15.27
2019-02-26T05:35:14.448Z,13.20
2019-02-26T05:37:43.842Z,15.03
2019-02-26T05:40:15.465Z,13.53
2019-02-26T05:42:44.463Z,13.50
2019-02-26T05:45:13.839Z,15.33
2019-02-26T05:47:45.437Z,12.87
2019-02-26T05:50:16.626Z,14.20
2019-02-26T05:52:49.795Z,15.13
2019-02-26T05:55:19.361Z,13.30
2019-02-26T05:57:47.858Z,13.23
2019-02-26T06:00:21.272Z,13.93
2019-02-26T06:02:50.964Z,14.53
2019-02-26T06:05:20.439Z,14.93
2019-02-26T06:07:52.049Z,15.27
2019-02-26T06:10:22.117Z,14.83
2019-02-26T06:12:52.601Z,19.60
2019-02-26T06:15:22.979Z,15.00
2019-02-26T06:17:53.415Z,15.80
2019-02-26T06:20:26.167Z,14.37
2019-02-26T06:22:55.200Z,15.27
2019-02-26T06:25:24.784Z,15.80
2019-02-26T06:27:54.171Z,15.40
2019-02-26T06:30:23.540Z,14.90
2019-02-26T06:32:53.359Z,15.87
2019-02-26T06:35:22.764Z,14.50
2019-02-26T06:37:52.132Z,15.47
2019-02-26T06:40:21.659Z,14.07
2019-02-26T06:42:51.094Z,15.20
2019-02-26T06:45:20.487Z,16.80
2019-02-26T06:47:51.421Z,16.57
2019-02-26T06:50:20.960Z,17.53
2019-02-26T06:52:50.858Z,17.07
2019-02-26T06:55:20.708Z,21.97
2019-02-26T06:57:52.659Z,28.20
2019-02-26T07:00:23.804Z,22.53
2019-02-26T07:02:52.184Z,24.17
2019-02-26T07:05:23.875Z,19.43
2019-02-26T07:07:54.459Z,19.47
2019-02-26T07:10:26.208Z,19.80
2019-02-26T07:12:54.781Z,21.43
2019-02-26T07:15:24.208Z,20.77
2019-02-26T07:17:53.974Z,18.80
2019-02-26T07:20:23.369Z,19.17
2019-02-26T07:22:52.736Z,19.83
2019-02-26T07:25:22.143Z,20.00
2019-02-26T07:27:53.583Z,19.73
2019-02-26T07:30:22.608Z,18.13
2019-02-26T07:32:51.987Z,19.93
2019-02-26T07:35:21.367Z,18.23
2019-02-26T07:37:52.362Z,17.97
2019-02-26T07:40:21.776Z,17.70
2019-02-26T07:42:51.270Z,19.77
2019-02-26T07:45:22.876Z,17.77
2019-02-26T07:47:55.411Z,17.50
2019-02-26T07:50:22.697Z,19.80
2019-02-26T07:52:52.657Z,18.60
2019-02-26T07:55:23.292Z,19.00
2019-02-26T07:57:53.215Z,18.60
2019-02-26T08:00:23.308Z,19.00
2019-02-26T08:02:54.781Z,18.60
2019-02-26T08:05:26.049Z,17.03
2019-02-26T08:07:56.521Z,18.43
2019-02-26T08:10:25.914Z,17.90
2019-02-26T08:12:56.621Z,16.53
2019-02-26T08:15:27.782Z,18.13
2019-02-26T08:17:58.483Z,17.10
2019-02-26T08:20:30.206Z,17.80
2019-02-26T08:23:01.307Z,16.53
2019-02-26T08:25:30.482Z,17.73
2019-02-26T08:28:01.307Z,21.07
2019-02-26T08:30:30.884Z,17.40
2019-02-26T08:33:02.673Z,17.73
2019-02-26T08:35:31.379Z,16.67
2019-02-26T08:38:00.755Z,18.60
2019-02-26T08:40:30.158Z,17.77
2019-02-26T08:42:59.705Z,18.97
2019-02-26T08:45:30.942Z,17.90
2019-02-26T08:48:00.071Z,18.30
2019-02-26T08:50:33.091Z,15.80
2019-02-26T08:53:00.484Z,15.73
2019-02-26T08:55:30.276Z,16.63
2019-02-26T08:57:59.731Z,15.27
2019-02-26T09:00:29.107Z,18.60
2019-02-26T09:02:58.479Z,17.23
2019-02-26T09:05:29.793Z,14.23
2019-02-26T09:07:59.155Z,13.53
2019-02-26T09:10:28.536Z,12.87
2019-02-26T09:12:57.935Z,13.73
2019-02-26T09:15:28.974Z,14.63
2019-02-26T09:17:58.352Z,13.57
2019-02-26T09:20:27.820Z,12.67
2019-02-26T09:22:59.522Z,12.93
2019-02-26T09:25:30.905Z,13.40
2019-02-26T09:27:59.311Z,12.03
2019-02-26T09:30:31.005Z,16.03
2019-02-26T09:33:00.938Z,14.50
2019-02-26T09:35:32.976Z,19.83
2019-02-26T09:38:01.823Z,13.97
2019-02-26T09:40:34.256Z,12.83
2019-02-26T09:43:02.243Z,12.13
2019-02-26T09:45:31.682Z,11.63
2019-02-26T09:48:01.318Z,10.87
2019-02-26T09:50:30.661Z,9.87
2019-02-26T09:53:00.076Z,9.80
2019-02-26T09:55:29.523Z,9.33
2019-02-26T09:58:02.608Z,11.23
2019-02-26T10:00:32.075Z,15.93
2019-02-26T10:03:03.024Z,11.37
2019-02-26T10:05:32.519Z,11.13
2019-02-26T10:08:03.433Z,10.00
2019-02-26T10:10:33.845Z,9.73
2019-02-26T10:13:04.809Z,9.70
2019-02-26T10:15:34.805Z,8.60
2019-02-26T10:18:07.224Z,9.47
2019-02-26T10:20:36.338Z,9.53
2019-02-26T10:23:06.323Z,10.27
2019-02-26T10:25:38.564Z,8.33
2019-02-26T10:28:11.038Z,11.37
2019-02-26T10:30:39.449Z,11.23
2019-02-26T10:33:09.328Z,11.07
2019-02-26T10:35:39.656Z,10.40
2019-02-26T10:38:11.417Z,9.83
2019-02-26T10:40:50.653Z,10.58
2019-02-26T10:43:11.826Z,15.33
2019-02-26T10:45:42.399Z,10.37
2019-02-26T10:48:13.776Z,11.83
2019-02-26T10:50:46.947Z,9.33
2019-02-26T10:53:17.262Z,9.67
2019-02-26T10:55:45.440Z,9.80
2019-02-26T10:58:14.968Z,9.88
2019-02-26T11:00:45.572Z,12.40
2019-02-26T11:03:16.894Z,24.55
2019-02-26T11:05:48.797Z,11.70
2019-02-26T11:08:17.055Z,11.30
2019-02-26T11:10:47.844Z,12.15
2019-02-26T11:13:18.236Z,10.70
2019-02-26T11:15:50.921Z,10.57
2019-02-26T11:18:21.104Z,10.70
2019-02-26T11:20:52.870Z,9.83
2019-02-26T11:23:30.382Z,9.78
2019-02-26T11:25:53.023Z,14.03
2019-02-26T11:28:22.459Z,9.60
2019-02-26T11:30:54.141Z,10.20
2019-02-26T11:33:22.871Z,11.68
2019-02-26T11:35:52.284Z,16.35
2019-02-26T11:38:22.286Z,10.48
2019-02-26T11:40:51.808Z,12.50
2019-02-26T11:43:25.541Z,12.30
2019-02-26T11:45:52.235Z,14.13
2019-02-26T11:48:23.321Z,13.77
2019-02-26T11:50:52.695Z,10.55
2019-02-26T11:53:22.383Z,10.60
2019-02-26T11:55:52.736Z,9.35
2019-02-26T11:58:24.226Z,8.88
2019-02-26T12:00:58.641Z,8.55
2019-02-26T12:03:30.348Z,9.50
2019-02-26T12:06:01.235Z,9.55
2019-02-26T12:15:15.164Z,9.03
2019-02-26T12:17:49.144Z,8.93
2019-02-26T12:20:19.542Z,8.13
2019-02-26T12:22:49.831Z,9.00
2019-02-26T12:25:19.843Z,8.45
2019-02-26T12:27:49.272Z,8.00
2019-02-26T12:30:20.669Z,8.00
2019-02-26T12:32:52.510Z,8.55
2019-02-26T12:35:21.147Z,8.40
2019-02-26T12:37:52.761Z,8.95
2019-02-26T12:40:24.720Z,8.55
2019-02-26T12:42:52.737Z,7.85
2019-02-26T12:45:22.231Z,7.80
2019-02-26T12:47:54.510Z,7.42
2019-02-26T12:50:26.059Z,7.97
2019-02-26T12:52:53.888Z,8.35
2019-02-26T12:55:29.568Z,9.25
2019-02-26T12:57:56.490Z,7.92
2019-02-26T13:00:27.859Z,7.65
2019-02-26T13:02:57.255Z,8.93
2019-02-26T13:05:26.631Z,8.43
2019-02-26T13:07:56.323Z,9.38
2019-02-26T13:10:25.811Z,8.10
2019-02-26T13:13:00.040Z,6.47
2019-02-26T13:15:26.596Z,7.33
2019-02-26T13:17:55.966Z,7.25
2019-02-26T13:20:25.371Z,7.70
2019-02-26T13:22:56.958Z,7.80
2019-02-26T13:25:26.761Z,8.53
2019-02-26T13:27:56.467Z,8.63
2019-02-26T13:30:25.879Z,9.35
2019-02-26T13:32:58.082Z,8.43
2019-02-26T13:35:26.352Z,7.67
2019-02-26T13:37:55.966Z,8.38
2019-02-26T13:47:27.165Z,7.35
2019-02-26T13:49:56.568Z,7.78
2019-02-26T13:52:25.943Z,8.85
2019-02-26T13:54:55.360Z,8.43
2019-02-26T13:57:24.777Z,8.95
2019-02-26T13:59:54.155Z,7.62
2019-02-26T14:02:23.919Z,8.13
2019-02-26T14:04:53.317Z,9.25
2019-02-26T14:07:22.700Z,7.78
2019-02-26T14:09:52.123Z,8.30
2019-02-26T14:12:21.496Z,7.03
2019-02-26T14:14:50.933Z,6.78
2019-02-26T14:17:20.336Z,8.40
2019-02-26T14:19:49.784Z,6.95
2019-02-26T14:22:19.179Z,6.72
2019-02-26T14:24:48.835Z,6.05
2019-02-26T14:27:18.257Z,5.87
2019-02-26T14:29:48.446Z,5.62
2019-02-26T14:32:18.199Z,6.00
2019-02-26T14:34:47.599Z,5.00
2019-02-26T14:37:16.983Z,4.45
2019-02-26T14:39:46.412Z,4.87
2019-02-26T14:42:15.798Z,3.60
2019-02-26T14:44:45.229Z,3.00
2019-02-26T14:47:14.655Z,2.90
2019-02-26T14:49:44.058Z,2.37
2019-02-26T14:52:13.485Z,2.58
2019-02-26T14:54:42.864Z,3.33
2019-02-26T14:57:12.607Z,2.45
2019-02-26T14:59:42.048Z,2.50
2019-02-26T15:02:11.588Z,2.87
2019-02-26T15:04:40.992Z,2.12
2019-02-26T15:07:10.384Z,2.17
2019-02-26T15:09:39.805Z,2.25
2019-02-26T15:12:09.203Z,2.52
2019-02-26T15:14:38.625Z,2.77
2019-02-26T15:17:08.010Z,2.95
2019-02-26T15:19:49.216Z,2.70
2019-02-26T15:22:08.493Z,5.28
2019-02-26T15:24:37.888Z,3.10
2019-02-26T15:27:07.292Z,3.27
2019-02-26T15:29:36.663Z,3.17
2019-02-26T15:32:06.193Z,4.20
2019-02-26T15:34:35.575Z,3.77
2019-02-26T15:37:04.960Z,5.00
2019-02-26T15:39:34.396Z,4.12
2019-02-26T15:42:03.783Z,3.75
2019-02-26T15:44:33.192Z,5.45
2019-02-26T15:47:03.029Z,5.92
2019-02-26T15:49:32.519Z,5.72
2019-02-26T15:52:01.907Z,5.80
2019-02-26T15:54:31.283Z,5.97
2019-02-26T15:57:01.062Z,6.50
2019-02-26T15:59:30.515Z,6.83
2019-02-26T16:02:00.022Z,7.15
2019-02-26T16:04:29.425Z,7.33
2019-02-26T16:06:58.923Z,6.97
2019-02-26T16:09:28.353Z,7.90
2019-02-26T16:11:57.746Z,7.83
2019-02-26T16:14:27.143Z,8.30
2019-02-26T16:16:56.571Z,11.70
2019-02-26T16:19:26.055Z,19.37
2019-02-26T16:21:55.665Z,14.85
2019-02-26T16:24:25.055Z,15.38
2019-02-26T16:26:54.492Z,14.75
2019-02-26T16:29:23.891Z,9.75
2019-02-26T16:31:53.306Z,11.65
2019-02-26T16:34:22.683Z,33.53
2019-02-26T16:36:52.108Z,15.85
2019-02-26T16:39:22.693Z,10.10
2019-02-26T16:41:52.587Z,11.80
2019-02-26T16:44:22.527Z,13.50
2019-02-26T16:46:53.011Z,11.45
2019-02-26T16:49:22.443Z,12.80
2019-02-26T16:51:52.432Z,11.03
2019-02-26T16:54:22.956Z,13.32
2019-02-26T16:56:54.332Z,12.82
2019-02-26T16:59:23.527Z,17.15
2019-02-26T17:01:54.977Z,21.60
2019-02-26T17:04:24.010Z,18.93
2019-02-26T17:06:53.937Z,12.33
2019-02-26T17:09:23.852Z,14.43
2019-02-26T17:11:53.329Z,14.40
2019-02-26T17:14:22.693Z,18.92
2019-02-26T17:16:52.123Z,14.73
2019-02-26T17:19:21.455Z,17.67
2019-02-26T17:21:50.872Z,16.90
2019-02-26T17:24:20.607Z,22.47
2019-02-26T17:26:52.408Z,19.33
2019-02-26T17:29:24.193Z,19.13
2019-02-26T17:31:55.437Z,20.07
2019-02-26T17:34:24.927Z,21.50
2019-02-26T17:36:54.328Z,21.97
2019-02-26T17:39:25.971Z,24.23
2019-02-26T17:41:55.061Z,16.17
2019-02-26T17:44:24.705Z,17.77
2019-02-26T17:46:54.071Z,25.77
2019-02-26T17:49:23.471Z,23.80
2019-02-26T17:51:52.899Z,16.20
2019-02-26T17:54:22.311Z,17.80
2019-02-26T17:56:51.714Z,18.33
2019-02-26T17:59:21.150Z,17.70
2019-02-26T18:01:50.579Z,22.17
2019-02-26T18:04:22.767Z,19.60
2019-02-26T18:06:51.652Z,22.13
2019-02-26T18:09:21.292Z,22.87
2019-02-26T18:11:50.667Z,20.33
2019-02-26T18:14:20.022Z,21.80
2019-02-26T18:16:49.412Z,21.42
2019-02-26T18:19:18.839Z,28.23
2019-02-26T18:21:48.215Z,24.40
2019-02-26T18:24:17.646Z,24.40
2019-02-26T18:26:47.064Z,22.35
2019-02-26T18:29:16.462Z,20.80
2019-02-26T18:31:45.875Z,21.30
2019-02-26T18:34:15.220Z,21.57
2019-02-26T18:36:45.477Z,20.73
2019-02-26T18:39:15.328Z,22.27
2019-02-26T18:41:50.530Z,20.27
2019-02-26T18:44:17.823Z,25.07
2019-02-26T18:46:46.825Z,24.20
2019-02-26T18:49:16.235Z,24.73
2019-02-26T18:51:45.679Z,22.73
2019-02-26T18:54:17.669Z,29.57
2019-02-26T18:56:46.288Z,23.70
2019-02-26T18:59:16.734Z,21.03
2019-02-26T19:01:46.380Z,21.73
2019-02-26T19:04:16.279Z,20.97
2019-02-26T19:06:46.180Z,23.33
2019-02-26T19:09:16.875Z,22.97
2019-02-26T19:11:46.311Z,23.90
2019-02-26T19:14:15.698Z,22.20
2019-02-26T19:16:45.338Z,18.47
2019-02-26T19:19:14.752Z,17.70
2019-02-26T19:21:44.227Z,20.50
2019-02-26T19:24:13.634Z,20.00
2019-02-26T19:26:44.480Z,20.37
2019-02-26T19:29:14.203Z,24.97
2019-02-26T19:31:43.590Z,27.50
2019-02-26T19:34:12.980Z,29.33
2019-02-26T19:36:45.674Z,49.03
2019-02-26T19:39:13.469Z,38.43
2019-02-26T19:41:45.246Z,27.43
2019-02-26T19:44:13.897Z,34.83
2019-02-26T19:46:43.352Z,34.80
2019-02-26T19:49:12.748Z,34.10
2019-02-26T19:51:42.121Z,30.73
2019-02-26T19:54:11.527Z,41.27
2019-02-26T19:56:40.929Z,34.47
2019-02-26T19:59:13.446Z,30.03
2019-02-26T20:01:41.627Z,29.43
2019-02-26T20:04:11.318Z,32.87
2019-02-26T20:06:40.708Z,30.80
2019-02-26T20:09:10.192Z,32.53
2019-02-26T20:11:39.598Z,30.87
2019-02-26T20:14:11.426Z,30.70
2019-02-26T20:16:40.095Z,30.83
2019-02-26T20:19:09.490Z,34.40
2019-02-26T20:21:38.940Z,35.53
2019-02-26T20:24:08.327Z,33.53
2019-02-26T20:26:37.748Z,28.87
2019-02-26T20:29:07.782Z,28.97
2019-02-26T20:31:37.711Z,27.83
2019-02-26T20:34:07.330Z,26.37
2019-02-26T20:36:36.756Z,26.67
2019-02-26T20:39:07.970Z,23.83
2019-02-26T20:41:37.808Z,27.10
2019-02-26T20:44:07.878Z,27.47
2019-02-26T20:46:38.269Z,26.10
2019-02-26T20:49:09.917Z,25.20
2019-02-26T20:51:38.740Z,26.47
2019-02-26T20:54:11.455Z,27.53
2019-02-26T20:56:39.164Z,29.10
2019-02-26T20:59:08.585Z,27.83
2019-02-26T21:01:40.075Z,23.60
2019-02-26T21:04:09.092Z,21.27
2019-02-26T21:06:39.245Z,19.67
2019-02-26T21:09:08.947Z,19.33
2019-02-26T21:11:38.405Z,18.90
2019-02-26T21:14:08.292Z,19.50
2019-02-26T21:16:37.719Z,17.77
2019-02-26T21:19:07.108Z,16.87
2019-02-26T21:21:36.541Z,21.33
2019-02-26T21:24:05.940Z,19.50
2019-02-26T21:26:35.309Z,18.97
2019-02-26T21:29:06.294Z,19.40
2019-02-26T21:31:35.712Z,18.20
2019-02-26T21:34:05.117Z,17.77
2019-02-26T21:36:34.505Z,17.90
2019-02-26T21:39:05.420Z,16.97
2019-02-26T21:41:34.802Z,17.83
2019-02-26T21:44:04.188Z,16.77
2019-02-26T21:46:33.605Z,17.87
2019-02-26T21:49:03.000Z,17.87
2019-02-26T21:51:33.937Z,18.03
2019-02-26T21:54:03.695Z,18.77
2019-02-26T21:56:34.410Z,18.20
2019-02-26T21:59:03.813Z,19.53
2019-02-26T22:01:33.303Z,20.03
2019-02-26T22:04:02.708Z,18.30
2019-02-26T22:06:32.201Z,19.83
2019-02-26T22:09:01.647Z,19.27
2019-02-26T22:11:31.040Z,17.43
2019-02-26T22:14:02.993Z,19.83
2019-02-26T22:16:31.483Z,17.07
2019-02-26T22:19:00.886Z,16.83
2019-02-26T22:21:31.382Z,18.50
2019-02-26T22:24:00.816Z,17.77
2019-02-26T22:26:30.224Z,15.63
2019-02-26T22:29:00.370Z,15.77
2019-02-26T22:31:29.739Z,15.67
2019-02-26T22:33:59.436Z,17.33
2019-02-26T22:36:30.759Z,17.60
2019-02-26T22:38:59.933Z,17.13
2019-02-26T22:41:29.327Z,15.20
2019-02-26T22:43:58.712Z,14.67
2019-02-26T22:46:28.181Z,15.37
2019-02-26T22:48:57.514Z,15.73
2019-02-26T22:51:26.923Z,17.40
2019-02-26T22:53:56.312Z,17.37
2019-02-26T22:56:25.725Z,21.97
2019-02-26T22:58:55.140Z,18.93
2019-02-26T23:01:36.411Z,17.47
2019-02-26T23:04:04.041Z,15.30
2019-02-26T23:06:33.448Z,16.83
2019-02-26T23:09:03.460Z,16.20
2019-02-26T23:11:33.475Z,16.93
2019-02-26T23:14:04.947Z,16.00
2019-02-26T23:16:34.654Z,16.57
2019-02-26T23:19:04.604Z,15.53
2019-02-26T23:21:34.995Z,16.13
2019-02-26T23:24:04.918Z,16.33
2019-02-26T23:26:34.807Z,17.20
2019-02-26T23:29:04.216Z,14.70
2019-02-26T23:31:33.699Z,16.90
2019-02-26T23:34:03.132Z,16.07
2019-02-26T23:36:32.524Z,19.73
2019-02-26T23:39:01.988Z,22.50
2019-02-26T23:41:33.075Z,17.17
2019-02-26T23:44:02.427Z,15.47
2019-02-26T23:46:31.808Z,15.80
2019-02-26T23:49:01.213Z,15.80
2019-02-26T23:51:30.635Z,15.60
2019-02-26T23:54:00.009Z,16.37
2019-02-26T23:56:29.419Z,16.00
2019-02-26T23:58:58.804Z,14.70
